Time;durP1;ratioP1;P1;durP2;ratioP2;P2;SDS_P1;SDS_P2;PMS_P1;PMS_P2;Temp;Humidity;BMP_temperature;BMP_pressure;BME280_temperature;BME280_humidity;BME280_pressure;Samples;Min_cycle;Max_cycle;Signal;HPM_P1;HPM_P2
2021/08/21 00:00:23;;;;;;;;;;;;;;;15.74;100.00;100295.82;1608607;87;21449;-84
2021/08/21 00:02:51;;;;;;;;;;;;;;;15.82;100.00;100292.74;1633911;86;20128;-84
2021/08/21 00:05:16;;;;;;;;;;;;;;;15.73;100.00;100287.50;1634804;87;20525;-85
2021/08/21 00:07:45;;;;;;;;;;;;;;;15.69;100.00;100292.91;1635707;86;20293;-84
2021/08/21 00:10:12;;;;;;;;;;;;;;;15.75;100.00;100290.83;1634297;87;20249;-84
2021/08/21 00:12:41;;;;;;;;;;;;;;;15.76;100.00;100292.45;1634045;87;20188;-84
2021/08/21 00:15:09;;;;;;;;;;;;;;;15.79;100.00;100292.12;1633891;86;20971;-81
2021/08/21 00:17:39;;;;;;;;;;;;;;;15.89;100.00;100300.31;1633981;86;20187;-83
2021/08/21 00:20:06;;;;;;;;;;;;;;;15.91;100.00;100294.28;1656900;84;20488;-82
2021/08/21 00:22:32;;;;;;;;;;;;;;;15.88;100.00;100297.32;1633750;86;20202;-83
2021/08/21 00:24:59;;;;;;;;;;;;;;;15.85;100.00;100296.36;1635159;86;21081;-82
2021/08/21 00:27:27;;;;;;;;;;;;;;;15.93;100.00;100290.44;1630072;87;20211;-82
2021/08/21 00:29:54;;;;;;;;;;;;;;;15.96;100.00;100295.90;1635769;85;20618;-83
2021/08/21 00:32:20;;;;;;;;;;;;;;;15.98;100.00;100296.53;1633542;85;20135;-82
2021/08/21 00:34:50;;;;;;;;;;;;;;;15.98;100.00;100295.20;1638570;85;20210;-83
2021/08/21 00:37:19;;;;;;;;;;;;;;;15.95;100.00;100303.56;1636355;85;21104;-82
2021/08/21 00:39:46;;;;;;;;;;;;;;;15.92;100.00;100298.61;1632514;86;20209;-83
2021/08/21 00:42:11;;;;;;;;;;;;;;;15.85;100.00;100305.69;1632763;86;20282;-84
2021/08/21 00:44:39;;;;;;;;;;;;;;;15.88;100.00;100299.98;1634128;86;20865;-84
2021/08/21 00:47:09;;;;;;;;;;;;;;;15.84;100.00;100304.87;1631945;86;20494;-84
2021/08/21 00:49:38;;;;;;;;;;;;;;;15.79;100.00;100305.43;1610049;87;20187;-84
2021/08/21 00:52:06;;;;;;;;;;;;;;;15.80;100.00;100303.61;1633248;86;20131;-84
2021/08/21 00:54:32;;;;;;;;;;;;;;;15.81;100.00;100306.58;1634650;86;20170;-85
2021/08/21 00:57:00;;;;;;;;;;;;;;;15.88;100.00;100305.31;1635519;87;20980;-85
2021/08/21 00:59:37;;;;;;;;;;;;;;;15.94;100.00;100308.56;1635672;87;20211;-85
2021/08/21 01:02:07;;;;;;;;;;;;;;;16.00;100.00;100301.16;1636953;87;21114;-87
2021/08/21 01:04:35;;;;;;;;;;;;;;;16.00;100.00;100304.33;1635338;86;20116;-85
2021/08/21 01:07:08;;;;;;;;;;;;;;;16.04;100.00;100304.28;1635829;86;20204;-84
2021/08/21 01:09:38;;;;;;;;;;;;;;;16.05;100.00;100304.09;1636400;86;20206;-83
2021/08/21 01:12:10;;;;;;;;;;;;;;;16.10;100.00;100300.34;1610865;85;20552;-84
2021/08/21 01:14:39;;;;;;;;;;;;;;;16.14;100.00;100301.64;1611578;87;21123;-84
2021/08/21 01:17:09;;;;;;;;;;;;;;;16.21;100.00;100299.55;1635947;86;20207;-84
2021/08/21 01:19:39;;;;;;;;;;;;;;;16.26;100.00;100295.28;1633421;87;20196;-84
2021/08/21 01:22:10;;;;;;;;;;;;;;;16.31;100.00;100300.89;1610313;86;20912;-84
2021/08/21 01:24:38;;;;;;;;;;;;;;;16.32;100.00;100299.84;1633114;86;20298;-84
2021/08/21 01:27:04;;;;;;;;;;;;;;;16.39;100.00;100297.27;1640033;86;21173;-83
2021/08/21 01:29:29;;;;;;;;;;;;;;;16.32;100.00;100296.38;1629853;86;20460;-83
2021/08/21 01:31:55;;;;;;;;;;;;;;;16.42;100.00;100293.38;1646064;86;20141;-82
2021/08/21 01:34:24;;;;;;;;;;;;;;;16.45;100.00;100293.84;1641550;86;20192;-83
2021/08/21 01:36:52;;;;;;;;;;;;;;;16.42;100.00;100292.89;1644268;86;20174;-83
2021/08/21 01:39:18;;;;;;;;;;;;;;;16.48;100.00;100291.28;1631372;86;21159;-83
2021/08/21 01:41:44;;;;;;;;;;;;;;;16.43;100.00;100294.52;1649939;86;20216;-83
2021/08/21 01:44:18;;;;;;;;;;;;;;;16.48;100.00;100297.45;1644831;86;20323;-83
2021/08/21 01:46:49;;;;;;;;;;;;;;;16.53;100.00;100292.04;1649673;86;20211;-82
2021/08/21 01:49:12;;;;;;;;;;;;;;;16.47;100.00;100291.80;1645515;86;20638;-83
2021/08/21 01:51:47;;;;;;;;;;;;;;;16.58;100.00;100289.61;1648751;86;21900;-84
2021/08/21 01:54:29;;;;;;;;;;;;;;;16.50;100.00;100291.94;1648274;86;20242;-84
2021/08/21 01:56:57;;;;;;;;;;;;;;;16.46;100.00;100286.66;1645425;86;20218;-84
2021/08/21 01:59:30;;;;;;;;;;;;;;;16.48;100.00;100288.13;1649704;86;20183;-83
2021/08/21 02:01:56;;;;;;;;;;;;;;;16.54;100.00;100301.70;1642725;86;20214;-84
2021/08/21 02:04:23;;;;;;;;;;;;;;;16.47;100.00;100299.80;1651651;86;21203;-83
2021/08/21 02:06:52;;;;;;;;;;;;;;;16.45;100.00;100300.51;1651918;86;20635;-84
2021/08/21 02:09:20;;;;;;;;;;;;;;;16.45;100.00;100297.00;1645068;86;20136;-84
2021/08/21 02:11:51;;;;;;;;;;;;;;;16.42;100.00;100303.55;1643212;86;20140;-84
2021/08/21 02:14:16;;;;;;;;;;;;;;;16.39;100.00;100303.94;1649631;86;20286;-85
2021/08/21 02:16:43;;;;;;;;;;;;;;;16.30;100.00;100306.41;1653095;86;21903;-85
2021/08/21 02:19:08;;;;;;;;;;;;;;;16.38;100.00;100299.61;1642636;86;20231;-85
2021/08/21 02:21:38;;;;;;;;;;;;;;;16.44;100.00;100294.84;1642900;85;20560;-85
2021/08/21 02:24:04;;;;;;;;;;;;;;;16.44;100.00;100294.84;1647937;86;20145;-85
2021/08/21 02:26:30;;;;;;;;;;;;;;;16.55;100.00;100299.36;1630834;86;20181;-85
2021/08/21 02:28:58;;;;;;;;;;;;;;;16.38;100.00;100302.27;1628847;87;21992;-84
2021/08/21 02:31:25;;;;;;;;;;;;;;;16.39;100.00;100302.59;1636603;87;20170;-84
2021/08/21 02:33:51;;;;;;;;;;;;;;;16.36;100.00;100300.31;1613351;85;20187;-84
2021/08/21 02:36:18;;;;;;;;;;;;;;;16.43;100.00;100298.52;1604809;87;20503;-84
2021/08/21 02:38:47;;;;;;;;;;;;;;;16.39;100.00;100299.09;1639078;85;20247;-84
2021/08/21 02:41:15;;;;;;;;;;;;;;;16.44;100.00;100298.03;1602123;87;20220;-83
2021/08/21 02:43:43;;;;;;;;;;;;;;;16.30;100.00;100304.55;1628086;85;20653;-82
2021/08/21 02:46:08;;;;;;;;;;;;;;;16.24;100.00;100299.17;1638231;85;20141;-83
2021/08/21 02:48:34;;;;;;;;;;;;;;;16.18;100.00;100293.27;1638559;85;20186;-84
2021/08/21 02:51:01;;;;;;;;;;;;;;;16.12;100.00;100290.32;1628109;85;20196;-83
2021/08/21 02:53:30;;;;;;;;;;;;;;;16.29;100.00;100294.09;1634660;87;22106;-83
2021/08/21 02:56:00;;;;;;;;;;;;;;;16.28;100.00;100300.42;1632974;87;20181;-83
2021/08/21 02:58:25;;;;;;;;;;;;;;;16.23;100.00;100297.51;1634250;87;20177;-85
2021/08/21 03:00:54;;;;;;;;;;;;;;;16.27;100.00;100300.12;1631783;85;20837;-83
2021/08/21 03:03:20;;;;;;;;;;;;;;;16.18;100.00;100299.92;1630205;87;20356;-83
2021/08/21 03:05:48;;;;;;;;;;;;;;;16.08;100.00;100298.39;1637046;87;20809;-83
2021/08/21 03:08:15;;;;;;;;;;;;;;;16.04;100.00;100299.77;1633574;87;20182;-84
2021/08/21 03:10:42;;;;;;;;;;;;;;;16.02;100.00;100298.30;1630014;86;20512;-83
2021/08/21 03:13:09;;;;;;;;;;;;;;;16.09;100.00;100298.69;1630475;87;20549;-83
2021/08/21 03:15:35;;;;;;;;;;;;;;;15.99;100.00;100306.18;1630450;85;20190;-85
2021/08/21 03:18:03;;;;;;;;;;;;;;;16.07;100.00;100299.39;1639495;87;21246;-85
2021/08/21 03:20:31;;;;;;;;;;;;;;;16.11;100.00;100302.02;1610165;87;20194;-84
2021/08/21 03:22:56;;;;;;;;;;;;;;;16.17;100.00;100304.92;1638272;85;20147;-84
2021/08/21 03:25:22;;;;;;;;;;;;;;;16.13;100.00;100303.97;1638417;87;20815;-84
2021/08/21 03:27:49;;;;;;;;;;;;;;;16.11;100.00;100311.34;1600122;86;20453;-84
2021/08/21 03:30:18;;;;;;;;;;;;;;;16.12;100.00;100313.48;1634912;86;21192;-84
2021/08/21 03:32:45;;;;;;;;;;;;;;;16.18;100.00;100312.73;1636727;85;20473;-84
2021/08/21 03:35:11;;;;;;;;;;;;;;;16.27;100.00;100314.78;1641431;85;20160;-84
2021/08/21 03:37:38;;;;;;;;;;;;;;;16.39;100.00;100307.93;1637993;85;20162;-84
2021/08/21 03:40:05;;;;;;;;;;;;;;;16.27;100.00;100314.78;1635336;87;20207;-84
2021/08/21 03:42:33;;;;;;;;;;;;;;;16.31;100.00;100313.36;1636197;85;21096;-84
2021/08/21 03:45:00;;;;;;;;;;;;;;;16.18;100.00;100315.91;1606377;87;20657;-84
2021/08/21 03:47:26;;;;;;;;;;;;;;;16.20;100.00;100312.54;1638500;87;20211;-84
2021/08/21 03:49:53;;;;;;;;;;;;;;;16.19;100.00;100313.55;1637457;87;20191;-84
2021/08/21 03:52:20;;;;;;;;;;;;;;;16.19;100.00;100313.06;1637678;86;20211;-85
2021/08/21 03:54:45;;;;;;;;;;;;;;;16.22;100.00;100315.83;1603143;87;20968;-83
2021/08/21 03:57:14;;;;;;;;;;;;;;;16.13;100.00;100329.28;1641184;86;20151;-84
2021/08/21 03:59:40;;;;;;;;;;;;;;;16.10;100.00;100322.18;1640661;85;20278;-84
2021/08/21 04:02:09;;;;;;;;;;;;;;;16.11;100.00;100319.33;1637065;85;20198;-84
2021/08/21 04:04:38;;;;;;;;;;;;;;;16.18;100.00;100323.91;1634789;87;20473;-83
2021/08/21 04:07:06;;;;;;;;;;;;;;;16.30;100.00;100323.73;1639188;85;21269;-81
2021/08/21 04:09:32;;;;;;;;;;;;;;;16.36;100.00;100326.97;1638091;87;20187;-81
2021/08/21 04:12:00;;;;;;;;;;;;;;;16.36;100.00;100336.30;1633260;87;20583;-82
2021/08/21 04:14:28;;;;;;;;;;;;;;;16.32;100.00;100339.02;1637880;87;20142;-81
2021/08/21 04:16:56;;;;;;;;;;;;;;;16.26;100.00;100341.91;1636641;87;20159;-83
2021/08/21 04:19:25;;;;;;;;;;;;;;;16.25;100.00;100338.11;1634175;86;21047;-84
2021/08/21 04:21:53;;;;;;;;;;;;;;;16.29;100.00;100342.05;1637902;85;20194;-83
2021/08/21 04:24:18;;;;;;;;;;;;;;;16.28;100.00;100342.57;1638697;87;20300;-85
2021/08/21 04:26:46;;;;;;;;;;;;;;;16.23;100.00;100345.47;1639215;85;20257;-82
2021/08/21 04:29:13;;;;;;;;;;;;;;;16.29;100.00;100355.37;1625490;85;20323;-84
2021/08/21 04:31:40;;;;;;;;;;;;;;;16.28;100.00;100352.38;1618185;87;21177;-84
2021/08/21 04:34:05;;;;;;;;;;;;;;;16.34;100.00;100352.96;1609704;87;20536;-84
2021/08/21 04:36:33;;;;;;;;;;;;;;;16.41;100.00;100360.53;1611285;87;20149;-84
2021/08/21 04:38:58;;;;;;;;;;;;;;;16.33;100.00;100363.33;1608663;87;20304;-85
2021/08/21 04:41:24;;;;;;;;;;;;;;;16.39;100.00;100363.91;1615308;87;20589;-87
2021/08/21 04:43:49;;;;;;;;;;;;;;;16.35;100.00;100362.62;1612301;87;22031;-85
2021/08/21 04:46:15;;;;;;;;;;;;;;;16.43;100.00;100366.48;1611976;87;20199;-87
2021/08/21 04:48:41;;;;;;;;;;;;;;;16.45;100.00;100363.63;1590039;88;20157;-86
2021/08/21 04:51:06;;;;;;;;;;;;;;;16.47;100.00;100367.77;1588970;88;20206;-86
2021/08/21 04:53:32;;;;;;;;;;;;;;;16.48;100.00;100364.10;1612720;87;20504;-87
2021/08/21 04:55:57;;;;;;;;;;;;;;;16.48;100.00;100374.77;1612336;87;21182;-87
2021/08/21 04:58:23;;;;;;;;;;;;;;;16.54;100.00;100372.34;1615077;87;20240;-87
2021/08/21 05:00:49;;;;;;;;;;;;;;;16.56;100.00;100376.97;1593636;87;20284;-88
2021/08/21 05:03:14;;;;;;;;;;;;;;;16.47;100.00;100377.10;1615744;87;20114;-86
2021/08/21 05:05:40;;;;;;;;;;;;;;;16.53;100.00;100382.68;1614941;87;20245;-87
2021/08/21 05:08:06;;;;;;;;;;;;;;;16.44;100.00;100374.81;1591158;87;21108;-87
2021/08/21 05:10:31;;;;;;;;;;;;;;;16.39;100.00;100384.38;1615244;87;20153;-89
2021/08/21 05:12:57;;;;;;;;;;;;;;;16.35;100.00;100381.27;1613523;86;20167;-87
2021/08/21 05:15:23;;;;;;;;;;;;;;;16.36;100.00;100381.61;1612993;87;20143;-83
2021/08/21 05:17:51;;;;;;;;;;;;;;;16.38;100.00;100383.56;1614878;87;20194;-87
2021/08/21 05:20:18;;;;;;;;;;;;;;;16.44;100.00;100388.14;1611011;87;20193;-86
2021/08/21 05:25:13;;;;;;;;;;;;;;;16.58;100.00;100389.59;1617134;87;20199;-83
2021/08/21 05:27:39;;;;;;;;;;;;;;;16.56;100.00;100387.63;1612165;87;20226;-86
2021/08/21 05:30:10;;;;;;;;;;;;;;;16.64;100.00;100394.17;1635793;86;20257;-88
2021/08/21 05:32:37;;;;;;;;;;;;;;;16.74;100.00;100394.69;1635672;86;20207;-86
2021/08/21 05:35:04;;;;;;;;;;;;;;;16.77;100.00;100394.31;1632130;86;20198;-88
2021/08/21 05:37:29;;;;;;;;;;;;;;;16.75;100.00;100400.35;1630467;86;20235;-88
2021/08/21 05:39:55;;;;;;;;;;;;;;;16.85;100.00;100396.84;1633674;86;20159;-89
2021/08/21 05:42:21;;;;;;;;;;;;;;;16.95;100.00;100397.05;1637643;85;20195;-88
2021/08/21 05:44:50;;;;;;;;;;;;;;;16.91;100.00;100395.29;1633350;85;21088;-85
2021/08/21 05:47:15;;;;;;;;;;;;;;;16.96;100.00;100396.05;1616352;87;20659;-88
2021/08/21 05:49:43;;;;;;;;;;;;;;;17.11;100.00;100402.13;1613399;87;20152;-88
2021/08/21 05:52:10;;;;;;;;;;;;;;;17.08;100.00;100406.52;1634969;87;20174;-87
2021/08/21 05:54:36;;;;;;;;;;;;;;;17.10;100.00;100404.98;1613939;87;20175;-87
2021/08/21 05:57:03;;;;;;;;;;;;;;;17.20;100.00;100404.98;1632469;87;21097;-88
2021/08/21 05:59:31;;;;;;;;;;;;;;;17.34;100.00;100408.57;1613596;87;20179;-85
2021/08/21 06:01:56;;;;;;;;;;;;;;;17.44;100.00;100411.41;1633664;86;20194;-87
2021/08/21 06:04:26;;;;;;;;;;;;;;;17.38;100.00;100413.81;1636068;85;20628;-86
2021/08/21 06:06:51;;;;;;;;;;;;;;;17.40;100.00;100410.47;1635207;87;20163;-88
2021/08/21 06:09:20;;;;;;;;;;;;;;;17.35;100.00;100413.39;1630425;87;21099;-88
2021/08/21 06:11:44;;;;;;;;;;;;;;;17.35;100.00;100414.72;1635078;87;20429;-86
2021/08/21 06:14:10;;;;;;;;;;;;;;;17.45;100.00;100423.23;1633553;85;20151;-85
2021/08/21 06:16:35;;;;;;;;;;;;;;;17.49;100.00;100423.13;1637592;86;20242;-82
2021/08/21 06:19:02;;;;;;;;;;;;;;;17.52;100.00;100421.41;1617780;87;20151;-86
2021/08/21 06:21:30;;;;;;;;;;;;;;;17.29;100.00;100424.84;1635123;86;21277;-85
2021/08/21 06:23:55;;;;;;;;;;;;;;;17.19;100.00;100422.00;1635510;87;20180;-82
2021/08/21 06:26:21;;;;;;;;;;;;;;;17.28;100.00;100433.89;1633847;86;20175;-87
2021/08/21 06:28:48;;;;;;;;;;;;;;;17.40;100.00;100432.31;1634093;87;20302;-87
2021/08/21 06:31:15;;;;;;;;;;;;;;;17.34;100.00;100430.41;1634291;86;20760;-88
2021/08/21 06:33:41;;;;;;;;;;;;;;;17.45;100.00;100428.57;1635883;86;21172;-86
2021/08/21 06:36:10;;;;;;;;;;;;;;;17.49;100.00;100428.48;1634573;87;20176;-88
2021/08/21 06:38:38;;;;;;;;;;;;;;;17.51;100.00;100434.47;1634167;87;20163;-83
2021/08/21 06:41:03;;;;;;;;;;;;;;;17.61;100.00;100438.64;1633663;87;20242;-86
2021/08/21 06:43:33;;;;;;;;;;;;;;;17.64;100.00;100435.58;1636208;86;20158;-87
2021/08/21 06:46:00;;;;;;;;;;;;;;;17.55;100.00;100442.91;1636027;86;21211;-87
2021/08/21 06:48:26;;;;;;;;;;;;;;;17.62;100.00;100442.94;1633978;86;20311;-84
2021/08/21 06:50:52;;;;;;;;;;;;;;;17.52;100.00;100441.44;1611553;87;20207;-89
2021/08/21 06:53:21;;;;;;;;;;;;;;;17.60;100.00;100439.12;1631385;86;20761;-86
2021/08/21 06:55:47;;;;;;;;;;;;;;;17.70;100.00;100437.47;1634598;87;20223;-82
2021/08/21 06:58:14;;;;;;;;;;;;;;;17.78;99.80;100434.63;1634571;85;21176;-84
2021/08/21 07:00:40;;;;;;;;;;;;;;;17.75;99.74;100443.04;1634768;87;20195;-85
2021/08/21 07:03:05;;;;;;;;;;;;;;;17.82;99.09;100443.91;1607020;87;20163;-87
2021/08/21 07:05:31;;;;;;;;;;;;;;;17.80;99.31;100440.59;1603596;87;20217;-87
2021/08/21 07:07:57;;;;;;;;;;;;;;;17.84;98.87;100447.20;1635292;87;20237;-86
2021/08/21 07:10:26;;;;;;;;;;;;;;;17.81;97.04;100452.94;1634251;87;21244;-86
2021/08/21 07:12:52;;;;;;;;;;;;;;;17.88;97.04;100450.30;1634292;85;20211;-84
2021/08/21 07:15:19;;;;;;;;;;;;;;;18.03;96.25;100452.37;1635086;85;20449;-83
2021/08/21 07:17:48;;;;;;;;;;;;;;;18.09;96.85;100456.11;1633395;86;20196;-84
2021/08/21 07:20:15;;;;;;;;;;;;;;;18.18;95.31;100457.59;1635187;86;20596;-86
2021/08/21 07:22:42;;;;;;;;;;;;;;;18.23;95.22;100456.47;1633325;86;21100;-86
2021/08/21 07:25:09;;;;;;;;;;;;;;;18.34;94.17;100456.94;1634974;87;20164;-84
2021/08/21 07:27:35;;;;;;;;;;;;;;;18.43;94.00;100453.06;1632774;86;20179;-84
2021/08/21 07:30:00;;;;;;;;;;;;;;;18.47;94.08;100459.64;1630641;86;20449;-82
2021/08/21 07:32:27;;;;;;;;;;;;;;;18.43;93.85;100464.58;1650685;85;20905;-84
2021/08/21 07:34:52;;;;;;;;;;;;;;;18.59;93.00;100467.39;1643473;86;21251;-86
2021/08/21 07:37:19;;;;;;;;;;;;;;;18.61;91.11;100469.38;1618916;86;20183;-85
2021/08/21 07:39:44;;;;;;;;;;;;;;;18.49;89.63;100470.98;1639690;86;20430;-86
2021/08/21 07:42:12;;;;;;;;;;;;;;;18.66;90.39;100469.59;1644167;86;20141;-86
2021/08/21 07:44:37;;;;;;;;;;;;;;;18.68;89.64;100481.95;1640326;86;20185;-85
2021/08/21 07:47:04;;;;;;;;;;;;;;;18.68;86.26;100480.61;1636704;86;21029;-86
2021/08/21 07:49:31;;;;;;;;;;;;;;;18.58;85.61;100477.80;1643868;86;20237;-87
2021/08/21 07:52:01;;;;;;;;;;;;;;;18.75;85.71;100482.77;1646645;86;20107;-87
2021/08/21 07:54:30;;;;;;;;;;;;;;;18.80;85.73;100485.69;1642247;86;20616;-84
2021/08/21 07:56:55;;;;;;;;;;;;;;;18.86;86.75;100482.20;1641237;85;20168;-88
2021/08/21 07:59:23;;;;;;;;;;;;;;;18.99;85.54;100482.77;1643360;86;21169;-87
2021/08/21 08:01:50;;;;;;;;;;;;;;;19.01;85.34;100480.17;1640479;86;20136;-87
2021/08/21 08:04:17;;;;;;;;;;;;;;;18.86;85.73;100486.22;1629238;86;20184;-86
2021/08/21 08:06:46;;;;;;;;;;;;;;;18.87;85.73;100489.22;1652814;86;20198;-87
2021/08/21 08:09:11;;;;;;;;;;;;;;;18.82;86.86;100484.97;1647483;84;20687;-86
2021/08/21 08:11:42;;;;;;;;;;;;;;;19.07;86.30;100485.77;1652386;86;20987;-86
2021/08/21 08:14:09;;;;;;;;;;;;;;;19.13;85.62;100490.30;1635859;86;20223;-88
2021/08/21 08:16:34;;;;;;;;;;;;;;;19.22;85.05;100489.08;1657753;84;20162;-86
2021/08/21 08:19:00;;;;;;;;;;;;;;;19.18;83.88;100485.97;1652316;86;20178;-85
2021/08/21 08:21:25;;;;;;;;;;;;;;;19.14;82.66;100489.25;1652674;86;20569;-86
2021/08/21 08:23:53;;;;;;;;;;;;;;;19.22;82.96;100489.08;1653469;86;21170;-86
2021/08/21 08:26:18;;;;;;;;;;;;;;;19.33;82.14;100492.48;1642045;86;20106;-85
2021/08/21 08:28:44;;;;;;;;;;;;;;;19.29;81.24;100497.11;1649585;86;20145;-87
2021/08/21 08:31:09;;;;;;;;;;;;;;;19.32;81.52;100492.16;1637277;87;20192;-89
2021/08/21 08:33:35;;;;;;;;;;;;;;;19.41;81.13;100493.31;1630324;87;20161;-87
2021/08/21 08:36:01;;;;;;;;;;;;;;;19.30;81.48;100491.55;1631453;87;21214;-87
2021/08/21 08:38:27;;;;;;;;;;;;;;;19.34;81.83;100490.12;1637569;87;20202;-84
2021/08/21 08:40:54;;;;;;;;;;;;;;;19.47;82.07;100497.32;1636965;85;20253;-85
2021/08/21 08:43:22;;;;;;;;;;;;;;;19.59;81.45;100492.14;1634080;85;20815;-86
2021/08/21 08:45:47;;;;;;;;;;;;;;;19.65;80.46;100498.54;1639216;85;20185;-88
2021/08/21 08:48:18;;;;;;;;;;;;;;;19.64;80.33;100500.41;1641080;85;21006;-85
2021/08/21 08:50:44;;;;;;;;;;;;;;;19.82;79.75;100496.28;1640060;85;20169;-89
2021/08/21 08:53:09;;;;;;;;;;;;;;;19.81;80.48;100493.28;1609999;87;20185;-88
2021/08/21 08:55:40;;;;;;;;;;;;;;;19.67;81.17;100497.31;1637499;85;20179;-87
2021/08/21 08:58:05;;;;;;;;;;;;;;;19.81;81.33;100489.27;1615901;87;20233;-88
2021/08/21 09:00:31;;;;;;;;;;;;;;;19.98;77.95;100493.17;1641961;85;21091;-83
2021/08/21 09:02:58;;;;;;;;;;;;;;;20.00;77.08;100501.82;1639741;85;20478;-84
2021/08/21 09:05:25;;;;;;;;;;;;;;;20.04;76.70;100496.85;1641926;85;20646;-86
2021/08/21 09:07:52;;;;;;;;;;;;;;;19.88;79.03;100498.95;1638025;85;21235;-86
2021/08/21 09:10:22;;;;;;;;;;;;;;;19.96;79.39;100496.56;1636765;85;20686;-88
2021/08/21 09:12:49;;;;;;;;;;;;;;;20.07;77.43;100506.66;1637693;85;21105;-83
2021/08/21 09:15:23;;;;;;;;;;;;;;;20.06;76.30;100505.00;1636833;85;20161;-88
2021/08/21 09:18:19;;;;;;;;;;;;;;;19.93;77.20;100503.68;1610919;85;20256;-86
2021/08/21 09:20:51;;;;;;;;;;;;;;;19.70;77.04;100509.45;1638697;85;20527;-85
2021/08/21 09:23:25;;;;;;;;;;;;;;;19.72;76.88;100516.26;1635054;85;20652;-85
2021/08/21 09:25:57;;;;;;;;;;;;;;;19.82;76.91;100505.66;1635185;85;21363;-89
2021/08/21 09:28:28;;;;;;;;;;;;;;;19.64;75.10;100520.50;1638036;85;20240;-86
2021/08/21 09:31:09;;;;;;;;;;;;;;;19.72;76.09;100514.92;1635413;85;20167;-88
2021/08/21 09:33:38;;;;;;;;;;;;;;;19.61;77.06;100518.23;1635479;85;20255;-88
2021/08/21 09:36:04;;;;;;;;;;;;;;;19.64;76.90;100519.16;1632517;86;20242;-90
2021/08/21 09:38:33;;;;;;;;;;;;;;;19.72;76.92;100520.28;1636234;85;21091;-88
2021/08/21 09:41:00;;;;;;;;;;;;;;;19.60;77.83;100519.25;1636384;85;20191;-90
2021/08/21 09:43:28;;;;;;;;;;;;;;;19.62;76.59;100525.22;1635917;85;20187;-88
2021/08/21 09:46:14;;;;;;;;;;;;;;;19.65;77.34;100526.67;1637932;86;20192;-89
2021/08/21 09:49:07;;;;;;;;;;;;;;;19.64;77.50;100526.36;1614344;85;20257;-83
2021/08/21 09:51:41;;;;;;;;;;;;;;;19.57;76.11;100527.70;1636650;85;21103;-86
2021/08/21 09:54:12;;;;;;;;;;;;;;;19.51;75.65;100532.55;1635779;85;20215;-86
2021/08/21 09:56:39;;;;;;;;;;;;;;;19.53;76.11;100543.90;1637881;85;20108;-87
2021/08/21 09:59:05;;;;;;;;;;;;;;;19.54;77.62;100528.96;1636025;86;20200;-86
2021/08/21 10:01:32;;;;;;;;;;;;;;;19.43;78.29;100543.47;1634955;86;20245;-86
2021/08/21 10:03:58;;;;;;;;;;;;;;;19.43;77.96;100538.11;1634175;85;21908;-86
2021/08/21 10:06:24;;;;;;;;;;;;;;;19.36;78.23;100541.61;1632907;86;20544;-89
2021/08/21 10:08:56;;;;;;;;;;;;;;;19.44;77.64;100539.77;1638095;85;20186;-85
2021/08/21 10:11:21;;;;;;;;;;;;;;;19.43;77.75;100542.13;1636243;86;20168;-88
2021/08/21 10:13:49;;;;;;;;;;;;;;;19.44;78.32;100543.79;1635634;86;20152;-84
2021/08/21 10:16:14;;;;;;;;;;;;;;;19.49;77.27;100540.78;1630970;86;20147;-89
2021/08/21 10:18:41;;;;;;;;;;;;;;;19.52;76.09;100535.02;1636141;86;20334;-84
2021/08/21 10:21:08;;;;;;;;;;;;;;;19.61;76.51;100537.48;1610655;86;20196;-90
2021/08/21 10:23:37;;;;;;;;;;;;;;;19.68;76.28;100541.81;1614008;87;20518;-87
2021/08/21 10:26:07;;;;;;;;;;;;;;;19.70;76.02;100538.43;1594933;87;36474;-88
2021/08/21 10:28:38;;;;;;;;;;;;;;;19.70;75.76;100542.45;1635236;86;21192;-83
2021/08/21 10:31:04;;;;;;;;;;;;;;;19.74;75.53;100540.98;1634169;86;20177;-83
2021/08/21 10:33:31;;;;;;;;;;;;;;;19.84;75.09;100538.44;1637219;86;20761;-87
2021/08/21 10:35:59;;;;;;;;;;;;;;;19.88;74.86;100531.64;1631773;86;20201;-85
2021/08/21 10:38:36;;;;;;;;;;;;;;;19.98;73.82;100530.70;1632648;85;20179;-86
2021/08/21 10:41:11;;;;;;;;;;;;;;;19.89;72.58;100530.61;1656799;84;21017;-88
2021/08/21 10:43:54;;;;;;;;;;;;;;;20.05;73.94;100528.81;1632992;87;20178;-87
2021/08/21 10:46:32;;;;;;;;;;;;;;;20.17;73.47;100528.19;1633838;85;20493;-88
2021/08/21 10:49:07;;;;;;;;;;;;;;;20.21;71.99;100528.91;1634979;85;20803;-88
2021/08/21 10:51:39;;;;;;;;;;;;;;;20.32;71.07;100527.40;1632243;85;20248;-87
2021/08/21 10:54:28;;;;;;;;;;;;;;;20.42;70.90;100525.63;1635279;85;21244;-88
2021/08/21 10:56:56;;;;;;;;;;;;;;;20.57;70.27;100525.35;1635287;85;20413;-87
2021/08/21 10:59:41;;;;;;;;;;;;;;;20.51;71.07;100520.84;1635117;86;20163;-89
2021/08/21 11:02:32;;;;;;;;;;;;;;;20.57;71.03;100524.01;1636689;85;20235;-86
2021/08/21 11:05:00;;;;;;;;;;;;;;;20.69;70.70;100519.65;1636390;86;20183;-85
2021/08/21 11:07:38;;;;;;;;;;;;;;;20.73;71.37;100524.09;1632518;86;21122;-87
2021/08/21 11:10:18;;;;;;;;;;;;;;;20.76;70.95;100522.32;1634761;86;20504;-88
2021/08/21 11:12:45;;;;;;;;;;;;;;;20.86;70.77;100520.51;1634557;87;20159;-88
2021/08/21 11:15:15;;;;;;;;;;;;;;;20.74;70.06;100526.56;1637494;86;20139;-89
2021/08/21 11:17:41;;;;;;;;;;;;;;;20.61;71.05;100526.58;1631865;86;20268;-87
2021/08/21 11:20:25;;;;;;;;;;;;;;;20.79;70.66;100521.37;1616150;85;21080;-86
2021/08/21 11:23:11;;;;;;;;;;;;;;;20.84;70.44;100523.41;1636272;85;20702;-83
2021/08/21 11:25:43;;;;;;;;;;;;;;;20.90;69.92;100525.23;1636006;85;20203;-88
2021/08/21 11:28:21;;;;;;;;;;;;;;;20.89;70.45;100517.39;1634955;85;20179;-87
2021/08/21 11:31:11;;;;;;;;;;;;;;;21.00;69.32;100511.33;1631731;86;20602;-85
2021/08/21 11:33:38;;;;;;;;;;;;;;;21.09;68.52;100515.40;1631225;87;21121;-85
2021/08/21 11:36:04;;;;;;;;;;;;;;;21.30;68.04;100512.05;1632972;86;20515;-86
2021/08/21 11:38:30;;;;;;;;;;;;;;;21.37;68.38;100508.80;1606661;87;20159;-84
2021/08/21 11:40:58;;;;;;;;;;;;;;;21.57;68.52;100516.73;1632523;86;20175;-82
2021/08/21 11:43:26;;;;;;;;;;;;;;;21.50;67.21;100511.42;1630975;86;20204;-83
2021/08/21 11:45:52;;;;;;;;;;;;;;;21.57;66.13;100515.92;1631122;87;21852;-82
2021/08/21 11:48:17;;;;;;;;;;;;;;;21.56;64.89;100514.27;1630970;86;20162;-82
2021/08/21 11:50:46;;;;;;;;;;;;;;;21.54;64.12;100509.11;1634960;86;20325;-82
2021/08/21 11:53:20;;;;;;;;;;;;;;;21.44;64.55;100515.45;1632890;86;20230;-86
2021/08/21 11:55:52;;;;;;;;;;;;;;;21.42;62.56;100511.64;1633616;87;20196;-81
2021/08/21 11:58:28;;;;;;;;;;;;;;;21.31;61.72;100509.67;1632025;87;21264;-83
2021/08/21 12:00:56;;;;;;;;;;;;;;;21.10;61.95;100515.72;1634846;86;20172;-83
2021/08/21 12:05:56;;;;;;;;;;;;;;;21.33;62.92;100504.89;1582773;87;20363;-88
2021/08/21 12:08:23;;;;;;;;;;;;;;;21.43;62.80;100503.89;1631471;87;20174;-92
2021/08/21 12:10:56;;;;;;;;;;;;;;;21.36;62.93;100507.14;1630243;86;21125;-81
2021/08/21 12:13:33;;;;;;;;;;;;;;;21.27;63.69;100506.61;1633520;86;20204;-89
2021/08/21 12:16:09;;;;;;;;;;;;;;;21.52;63.16;100499.11;1635215;85;20199;-83
2021/08/21 12:18:35;;;;;;;;;;;;;;;21.61;62.98;100495.61;1633962;86;20212;-84
2021/08/21 12:21:03;;;;;;;;;;;;;;;21.57;62.87;100497.11;1630975;84;20226;-87
2021/08/21 12:23:29;;;;;;;;;;;;;;;21.40;63.22;100508.36;1634491;86;21165;-85
2021/08/21 12:26:02;;;;;;;;;;;;;;;21.41;62.93;100501.95;1633136;87;20468;-85
2021/08/21 12:28:39;;;;;;;;;;;;;;;21.38;63.48;100505.08;1609437;86;20223;-85
2021/08/21 12:31:10;;;;;;;;;;;;;;;21.55;63.74;100500.52;1634880;86;21730;-83
2021/08/21 12:33:39;;;;;;;;;;;;;;;21.57;64.07;100498.45;1634308;85;20271;-89
2021/08/21 12:36:12;;;;;;;;;;;;;;;21.70;64.21;100502.34;1632754;87;21993;-86
2021/08/21 12:38:38;;;;;;;;;;;;;;;21.73;62.20;100493.84;1634427;87;20721;-86
2021/08/21 12:41:09;;;;;;;;;;;;;;;21.91;62.00;100497.59;1634689;86;20242;-86